sensor_id;sensor_type;location;lat;lon;timestamp;pressure;altitude;pressure_sealevel;temperature;humidity
54270;BME280;40181;51.560;13.000;2023-12-04T00:01:14;101256.63;;;-2.56;93.23
54270;BME280;40181;51.560;13.000;2023-12-04T00:03:44;101258.44;;;-2.55;91.24
54270;BME280;40181;51.560;13.000;2023-12-04T00:06:13;101260.22;;;-2.54;91.39
54270;BME280;40181;51.560;13.000;2023-12-04T00:08:42;101244.34;;;-2.48;90.58
54270;BME280;40181;51.560;13.000;2023-12-04T00:11:14;101249.06;;;-2.42;90.17
54270;BME280;40181;51.560;13.000;2023-12-04T00:13:43;101240.47;;;-2.43;89.67
54270;BME280;40181;51.560;13.000;2023-12-04T00:16:12;101245.38;;;-2.46;89.49
54270;BME280;40181;51.560;13.000;2023-12-04T00:18:41;101244.41;;;-2.36;89.13
54270;BME280;40181;51.560;13.000;2023-12-04T00:21:10;101252.00;;;-2.38;89.27
54270;BME280;40181;51.560;13.000;2023-12-04T00:23:40;101251.72;;;-2.53;88.63
54270;BME280;40181;51.560;13.000;2023-12-04T00:26:09;101233.75;;;-2.41;88.43
54270;BME280;40181;51.560;13.000;2023-12-04T00:28:42;101242.34;;;-2.40;87.95
54270;BME280;40181;51.560;13.000;2023-12-04T00:31:11;101239.78;;;-2.40;88.27
54270;BME280;40181;51.560;13.000;2023-12-04T00:33:40;101239.28;;;-2.58;88.05
54270;BME280;40181;51.560;13.000;2023-12-04T00:36:10;101233.34;;;-2.35;87.48
54270;BME280;40181;51.560;13.000;2023-12-04T00:38:39;101226.84;;;-2.30;87.50
54270;BME280;40181;51.560;13.000;2023-12-04T00:41:08;101234.63;;;-2.40;86.96
54270;BME280;40181;51.560;13.000;2023-12-04T00:43:38;101238.50;;;-2.57;88.22
54270;BME280;40181;51.560;13.000;2023-12-04T00:46:10;101233.84;;;-2.39;87.70
54270;BME280;40181;51.560;13.000;2023-12-04T00:48:39;101245.28;;;-2.36;87.06
54270;BME280;40181;51.560;13.000;2023-12-04T00:51:08;101251.38;;;-2.57;87.71
54270;BME280;40181;51.560;13.000;2023-12-04T00:53:37;101260.44;;;-2.51;87.71
54270;BME280;40181;51.560;13.000;2023-12-04T00:56:07;101254.03;;;-2.33;87.14
54270;BME280;40181;51.560;13.000;2023-12-04T00:58:37;101253.94;;;-2.57;86.90
54270;BME280;40181;51.560;13.000;2023-12-04T01:01:09;101252.50;;;-2.54;86.92
54270;BME280;40181;51.560;13.000;2023-12-04T01:03:39;101258.94;;;-2.59;86.87
54270;BME280;40181;51.560;13.000;2023-12-04T01:06:08;101256.28;;;-2.38;86.67
54270;BME280;40181;51.560;13.000;2023-12-04T01:08:38;101261.09;;;-2.53;87.46
54270;BME280;40181;51.560;13.000;2023-12-04T01:11:07;101254.03;;;-2.33;87.06
54270;BME280;40181;51.560;13.000;2023-12-04T01:13:36;101254.00;;;-2.45;87.45
54270;BME280;40181;51.560;13.000;2023-12-04T01:16:09;101254.59;;;-2.60;87.35
54270;BME280;40181;51.560;13.000;2023-12-04T01:18:38;101252.34;;;-2.33;87.77
54270;BME280;40181;51.560;13.000;2023-12-04T01:21:07;101239.88;;;-2.51;87.34
54270;BME280;40181;51.560;13.000;2023-12-04T01:23:36;101244.47;;;-2.46;87.74
54270;BME280;40181;51.560;13.000;2023-12-04T01:26:06;101237.69;;;-2.34;87.28
54270;BME280;40181;51.560;13.000;2023-12-04T01:28:35;101229.84;;;-2.36;86.54
54270;BME280;40181;51.560;13.000;2023-12-04T01:31:05;101231.38;;;-2.50;87.10
54270;BME280;40181;51.560;13.000;2023-12-04T01:33:37;101230.00;;;-2.56;86.98
54270;BME280;40181;51.560;13.000;2023-12-04T01:36:07;101228.63;;;-2.41;86.85
54270;BME280;40181;51.560;13.000;2023-12-04T01:38:37;101220.59;;;-2.33;87.10
54270;BME280;40181;51.560;13.000;2023-12-04T01:41:06;101222.75;;;-2.50;86.81
54270;BME280;40181;51.560;13.000;2023-12-04T01:43:35;101226.69;;;-2.43;87.08
54270;BME280;40181;51.560;13.000;2023-12-04T01:46:08;101218.44;;;-2.61;86.67
54270;BME280;40181;51.560;13.000;2023-12-04T01:48:38;101214.88;;;-2.29;86.56
54270;BME280;40181;51.560;13.000;2023-12-04T01:51:09;101211.63;;;-2.61;86.66
54270;BME280;40181;51.560;13.000;2023-12-04T01:53:39;101213.50;;;-2.70;87.04
54270;BME280;40181;51.560;13.000;2023-12-04T01:56:09;101213.63;;;-2.69;87.25
54270;BME280;40181;51.560;13.000;2023-12-04T01:58:39;101210.00;;;-2.83;88.00
54270;BME280;40181;51.560;13.000;2023-12-04T02:01:11;101211.41;;;-3.09;89.94
54270;BME280;40181;51.560;13.000;2023-12-04T02:03:40;101209.13;;;-2.94;89.43
54270;BME280;40181;51.560;13.000;2023-12-04T02:06:11;101209.13;;;-2.94;88.28
54270;BME280;40181;51.560;13.000;2023-12-04T02:08:41;101197.13;;;-2.83;88.03
54270;BME280;40181;51.560;13.000;2023-12-04T02:11:10;101197.22;;;-3.03;89.04
54270;BME280;40181;51.560;13.000;2023-12-04T02:13:39;101192.28;;;-2.90;89.33
54270;BME280;40181;51.560;13.000;2023-12-04T02:16:11;101196.06;;;-2.74;89.14
54270;BME280;40181;51.560;13.000;2023-12-04T02:18:44;101199.78;;;-3.26;91.03
54270;BME280;40181;51.560;13.000;2023-12-04T02:21:13;101190.66;;;-2.78;90.14
54270;BME280;40181;51.560;13.000;2023-12-04T02:23:42;101187.00;;;-2.92;89.83
54270;BME280;40181;51.560;13.000;2023-12-04T02:26:16;101179.28;;;-2.92;89.87
54270;BME280;40181;51.560;13.000;2023-12-04T02:28:54;101179.94;;;-2.94;89.99
54270;BME280;40181;51.560;13.000;2023-12-04T02:31:27;101164.59;;;-3.04;90.28
54270;BME280;40181;51.560;13.000;2023-12-04T02:33:59;101169.63;;;-3.06;90.17
54270;BME280;40181;51.560;13.000;2023-12-04T02:36:30;101159.56;;;-3.03;90.07
54270;BME280;40181;51.560;13.000;2023-12-04T02:39:00;101151.72;;;-3.04;89.98
54270;BME280;40181;51.560;13.000;2023-12-04T02:41:32;101149.88;;;-3.17;90.84
54270;BME280;40181;51.560;13.000;2023-12-04T02:44:01;101146.16;;;-3.21;90.91
54270;BME280;40181;51.560;13.000;2023-12-04T02:46:30;101158.28;;;-3.30;90.42
54270;BME280;40181;51.560;13.000;2023-12-04T02:48:59;101139.13;;;-3.24;90.17
54270;BME280;40181;51.560;13.000;2023-12-04T02:51:28;101137.38;;;-3.13;90.25
54270;BME280;40181;51.560;13.000;2023-12-04T02:53:57;101140.38;;;-3.18;89.62
54270;BME280;40181;51.560;13.000;2023-12-04T02:56:26;101129.03;;;-3.10;89.33
54270;BME280;40181;51.560;13.000;2023-12-04T02:58:55;101135.84;;;-3.33;89.93
54270;BME280;40181;51.560;13.000;2023-12-04T03:01:24;101129.72;;;-3.23;89.75
54270;BME280;40181;51.560;13.000;2023-12-04T03:03:53;101128.53;;;-3.16;90.01
54270;BME280;40181;51.560;13.000;2023-12-04T03:06:22;101134.38;;;-3.29;89.47
54270;BME280;40181;51.560;13.000;2023-12-04T03:08:51;101148.56;;;-3.67;91.13
54270;BME280;40181;51.560;13.000;2023-12-04T03:11:20;101125.63;;;-3.54;91.38
54270;BME280;40181;51.560;13.000;2023-12-04T03:13:49;101125.34;;;-3.47;91.16
54270;BME280;40181;51.560;13.000;2023-12-04T03:16:20;101128.22;;;-3.54;91.40
54270;BME280;40181;51.560;13.000;2023-12-04T03:18:49;101124.56;;;-3.45;91.60
54270;BME280;40181;51.560;13.000;2023-12-04T03:21:18;101120.13;;;-3.58;91.26
54270;BME280;40181;51.560;13.000;2023-12-04T03:23:47;101133.16;;;-3.67;91.76
54270;BME280;40181;51.560;13.000;2023-12-04T03:26:14;101128.22;;;-3.54;92.47
54270;BME280;40181;51.560;13.000;2023-12-04T03:28:43;101124.44;;;-3.47;92.00
54270;BME280;40181;51.560;13.000;2023-12-04T03:31:12;101122.19;;;-3.54;92.09
54270;BME280;40181;51.560;13.000;2023-12-04T03:33:43;101121.66;;;-3.50;91.68
54270;BME280;40181;51.560;13.000;2023-12-04T03:36:12;101121.00;;;-3.48;92.01
54270;BME280;40181;51.560;13.000;2023-12-04T03:38:41;101122.50;;;-3.39;91.62
54270;BME280;40181;51.560;13.000;2023-12-04T03:41:13;101118.25;;;-3.39;91.37
54270;BME280;40181;51.560;13.000;2023-12-04T03:43:42;101117.47;;;-3.38;90.94
54270;BME280;40181;51.560;13.000;2023-12-04T03:46:12;101111.59;;;-3.47;90.71
54270;BME280;40181;51.560;13.000;2023-12-04T03:48:43;101121.13;;;-3.46;90.91
54270;BME280;40181;51.560;13.000;2023-12-04T03:51:12;101105.75;;;-3.56;90.65
54270;BME280;40181;51.560;13.000;2023-12-04T03:53:41;101115.06;;;-3.69;91.31
54270;BME280;40181;51.560;13.000;2023-12-04T03:56:10;101107.44;;;-3.57;90.72
54270;BME280;40181;51.560;13.000;2023-12-04T03:58:40;101117.25;;;-3.73;90.96
54270;BME280;40181;51.560;13.000;2023-12-04T04:01:09;101103.72;;;-3.61;90.61
54270;BME280;40181;51.560;13.000;2023-12-04T04:03:38;101107.38;;;-3.47;90.28
54270;BME280;40181;51.560;13.000;2023-12-04T04:06:10;101106.88;;;-3.53;90.34
54270;BME280;40181;51.560;13.000;2023-12-04T04:08:39;101111.78;;;-3.56;90.01
54270;BME280;40181;51.560;13.000;2023-12-04T04:11:08;101098.00;;;-3.46;89.87
54270;BME280;40181;51.560;13.000;2023-12-04T04:13:37;101091.00;;;-3.59;89.98
54270;BME280;40181;51.560;13.000;2023-12-04T04:16:07;101094.53;;;-3.47;90.12
54270;BME280;40181;51.560;13.000;2023-12-04T04:18:42;101085.50;;;-3.64;89.78
54270;BME280;40181;51.560;13.000;2023-12-04T04:21:13;101079.19;;;-3.57;89.71
54270;BME280;40181;51.560;13.000;2023-12-04T04:23:42;101074.69;;;-3.59;90.13
54270;BME280;40181;51.560;13.000;2023-12-04T04:26:11;101075.63;;;-3.47;89.75
54270;BME280;40181;51.560;13.000;2023-12-04T04:28:40;101086.34;;;-3.53;89.33
54270;BME280;40181;51.560;13.000;2023-12-04T04:31:10;101069.00;;;-3.78;89.42
54270;BME280;40181;51.560;13.000;2023-12-04T04:33:38;101072.44;;;-3.77;89.43
54270;BME280;40181;51.560;13.000;2023-12-04T04:36:09;101081.78;;;-3.67;89.25
54270;BME280;40181;51.560;13.000;2023-12-04T04:38:41;101077.03;;;-3.63;88.68
54270;BME280;40181;51.560;13.000;2023-12-04T04:41:13;101071.25;;;-3.70;89.44
54270;BME280;40181;51.560;13.000;2023-12-04T04:43:42;101076.53;;;-3.69;89.40
54270;BME280;40181;51.560;13.000;2023-12-04T04:46:11;101063.88;;;-3.88;89.66
54270;BME280;40181;51.560;13.000;2023-12-04T04:48:40;101073.00;;;-3.81;89.78
54270;BME280;40181;51.560;13.000;2023-12-04T04:51:10;101080.06;;;-3.89;89.92
54270;BME280;40181;51.560;13.000;2023-12-04T04:53:41;101061.94;;;-3.80;90.44
54270;BME280;40181;51.560;13.000;2023-12-04T04:56:10;101058.19;;;-3.73;90.22
54270;BME280;40181;51.560;13.000;2023-12-04T04:58:39;101052.31;;;-3.83;90.30
54270;BME280;40181;51.560;13.000;2023-12-04T05:01:08;101052.59;;;-3.90;91.12
54270;BME280;40181;51.560;13.000;2023-12-04T05:03:37;101047.75;;;-3.97;91.22
54270;BME280;40181;51.560;13.000;2023-12-04T05:06:07;101044.91;;;-4.23;91.85
54270;BME280;40181;51.560;13.000;2023-12-04T05:08:39;101035.28;;;-3.93;92.22
54270;BME280;40181;51.560;13.000;2023-12-04T05:11:08;101034.13;;;-3.96;91.64
54270;BME280;40181;51.560;13.000;2023-12-04T05:13:37;101027.22;;;-3.97;92.47
54270;BME280;40181;51.560;13.000;2023-12-04T05:16:06;101031.44;;;-3.87;91.81
54270;BME280;40181;51.560;13.000;2023-12-04T05:18:37;101028.72;;;-3.89;92.03
54270;BME280;40181;51.560;13.000;2023-12-04T05:21:08;101022.72;;;-3.90;92.52
54270;BME280;40181;51.560;13.000;2023-12-04T05:23:40;101016.81;;;-3.89;92.74
54270;BME280;40181;51.560;13.000;2023-12-04T05:26:09;101019.59;;;-3.85;92.14
54270;BME280;40181;51.560;13.000;2023-12-04T05:28:38;101018.88;;;-3.95;92.90
54270;BME280;40181;51.560;13.000;2023-12-04T05:31:07;101009.50;;;-3.94;93.12
54270;BME280;40181;51.560;13.000;2023-12-04T05:33:36;101010.53;;;-3.92;93.38
54270;BME280;40181;51.560;13.000;2023-12-04T05:36:06;101013.75;;;-3.72;92.70
54270;BME280;40181;51.560;13.000;2023-12-04T05:38:36;101012.34;;;-3.69;92.28
54270;BME280;40181;51.560;13.000;2023-12-04T05:41:07;100995.44;;;-3.77;93.05
54270;BME280;40181;51.560;13.000;2023-12-04T05:43:36;100994.13;;;-3.72;92.44
54270;BME280;40181;51.560;13.000;2023-12-04T05:46:05;100992.44;;;-3.71;92.31
54270;BME280;40181;51.560;13.000;2023-12-04T05:48:34;100986.53;;;-3.70;92.40
54270;BME280;40181;51.560;13.000;2023-12-04T05:51:04;100987.13;;;-3.63;92.42
54270;BME280;40181;51.560;13.000;2023-12-04T05:53:33;100987.84;;;-3.76;92.95
54270;BME280;40181;51.560;13.000;2023-12-04T05:56:04;100995.19;;;-3.80;93.62
54270;BME280;40181;51.560;13.000;2023-12-04T05:58:36;100989.09;;;-3.70;94.26
54270;BME280;40181;51.560;13.000;2023-12-04T06:01:06;100985.50;;;-3.95;95.06
54270;BME280;40181;51.560;13.000;2023-12-04T06:03:35;100980.56;;;-3.81;95.07
54270;BME280;40181;51.560;13.000;2023-12-04T06:06:04;100980.66;;;-3.57;95.38
54270;BME280;40181;51.560;13.000;2023-12-04T06:08:34;100979.25;;;-3.76;95.47
54270;BME280;40181;51.560;13.000;2023-12-04T06:11:04;100973.94;;;-3.67;95.45
54270;BME280;40181;51.560;13.000;2023-12-04T06:13:36;100973.91;;;-3.45;94.72
54270;BME280;40181;51.560;13.000;2023-12-04T06:16:06;100978.44;;;-3.87;95.35
54270;BME280;40181;51.560;13.000;2023-12-04T06:18:36;100975.34;;;-4.15;95.77
54270;BME280;40181;51.560;13.000;2023-12-04T06:21:05;100968.53;;;-3.93;96.06
54270;BME280;40181;51.560;13.000;2023-12-04T06:23:36;100963.78;;;-3.88;96.77
54270;BME280;40181;51.560;13.000;2023-12-04T06:26:06;100963.91;;;-3.86;96.37
54270;BME280;40181;51.560;13.000;2023-12-04T06:28:40;100969.25;;;-4.06;96.54
54270;BME280;40181;51.560;13.000;2023-12-04T06:31:12;100963.97;;;-3.97;97.64
54270;BME280;40181;51.560;13.000;2023-12-04T06:33:43;100958.69;;;-3.76;96.79
54270;BME280;40181;51.560;13.000;2023-12-04T06:36:15;100969.03;;;-4.09;97.64
54270;BME280;40181;51.560;13.000;2023-12-04T06:38:46;100970.31;;;-3.81;97.48
54270;BME280;40181;51.560;13.000;2023-12-04T06:41:16;100955.28;;;-3.65;96.30
54270;BME280;40181;51.560;13.000;2023-12-04T06:43:50;100960.03;;;-3.81;96.36
54270;BME280;40181;51.560;13.000;2023-12-04T06:46:21;100949.56;;;-3.72;96.38
54270;BME280;40181;51.560;13.000;2023-12-04T06:48:54;100949.88;;;-3.80;96.56
54270;BME280;40181;51.560;13.000;2023-12-04T06:51:25;100949.78;;;-3.69;96.85
54270;BME280;40181;51.560;13.000;2023-12-04T06:53:55;100953.75;;;-3.63;96.28
54270;BME280;40181;51.560;13.000;2023-12-04T06:56:24;100935.69;;;-3.52;96.22
54270;BME280;40181;51.560;13.000;2023-12-04T06:58:55;100939.13;;;-3.52;96.61
54270;BME280;40181;51.560;13.000;2023-12-04T07:01:25;100938.34;;;-3.63;96.20
54270;BME280;40181;51.560;13.000;2023-12-04T07:03:54;100935.38;;;-3.45;96.95
54270;BME280;40181;51.560;13.000;2023-12-04T07:06:23;100939.41;;;-3.49;95.91
54270;BME280;40181;51.560;13.000;2023-12-04T07:08:52;100939.25;;;-3.50;96.55
54270;BME280;40181;51.560;13.000;2023-12-04T07:11:21;100931.00;;;-3.58;96.36
54270;BME280;40181;51.560;13.000;2023-12-04T07:13:50;100926.91;;;-3.44;96.86
54270;BME280;40181;51.560;13.000;2023-12-04T07:16:22;100928.72;;;-3.31;96.19
54270;BME280;40181;51.560;13.000;2023-12-04T07:18:51;100922.50;;;-3.23;96.33
54270;BME280;40181;51.560;13.000;2023-12-04T07:21:20;100923.38;;;-3.10;95.62
54270;BME280;40181;51.560;13.000;2023-12-04T07:23:51;100923.38;;;-3.10;95.96
54270;BME280;40181;51.560;13.000;2023-12-04T07:26:20;100941.22;;;-3.36;96.20
54270;BME280;40181;51.560;13.000;2023-12-04T07:28:50;100936.31;;;-3.33;96.29
54270;BME280;40181;51.560;13.000;2023-12-04T07:31:19;100929.97;;;-3.14;95.98
54270;BME280;40181;51.560;13.000;2023-12-04T07:33:51;100939.03;;;-3.19;96.13
54270;BME280;40181;51.560;13.000;2023-12-04T07:36:20;100927.88;;;-3.08;96.34
54270;BME280;40181;51.560;13.000;2023-12-04T07:38:50;100927.09;;;-3.07;96.11
54270;BME280;40181;51.560;13.000;2023-12-04T07:41:19;100925.97;;;-2.98;95.97
54270;BME280;40181;51.560;13.000;2023-12-04T07:43:48;100915.16;;;-3.06;96.27
54270;BME280;40181;51.560;13.000;2023-12-04T07:46:18;100923.38;;;-3.10;97.06
54270;BME280;40181;51.560;13.000;2023-12-04T07:48:49;100919.06;;;-2.99;97.09
54270;BME280;40181;51.560;13.000;2023-12-04T07:51:18;100912.81;;;-2.91;97.08
54270;BME280;40181;51.560;13.000;2023-12-04T07:53:48;100919.06;;;-2.87;97.19
54270;BME280;40181;51.560;13.000;2023-12-04T07:56:17;100918.03;;;-2.78;96.65
54270;BME280;40181;51.560;13.000;2023-12-04T07:58:46;100912.03;;;-2.78;96.82
54270;BME280;40181;51.560;13.000;2023-12-04T08:01:16;100909.09;;;-2.71;96.75
54270;BME280;40181;51.560;13.000;2023-12-04T08:03:42;100913.25;;;-2.73;96.91
54270;BME280;40181;51.560;13.000;2023-12-04T08:06:14;100918.63;;;-2.70;97.29
54270;BME280;40181;51.560;13.000;2023-12-04T08:08:44;100918.03;;;-2.89;97.07
54270;BME280;40181;51.560;13.000;2023-12-04T08:11:13;100909.34;;;-2.68;97.07
54270;BME280;40181;51.560;13.000;2023-12-04T08:13:43;100908.66;;;-2.65;96.77
54270;BME280;40181;51.560;13.000;2023-12-04T08:16:13;100915.22;;;-2.45;96.48
54270;BME280;40181;51.560;13.000;2023-12-04T08:18:42;100908.09;;;-2.49;96.34
54270;BME280;40181;51.560;13.000;2023-12-04T08:21:14;100908.22;;;-2.47;95.81
54270;BME280;40181;51.560;13.000;2023-12-04T08:23:43;100916.25;;;-2.55;96.55
54270;BME280;40181;51.560;13.000;2023-12-04T08:26:12;100930.47;;;-2.48;96.21
54270;BME280;40181;51.560;13.000;2023-12-04T08:28:41;100921.63;;;-2.64;96.41
54270;BME280;40181;51.560;13.000;2023-12-04T08:31:10;100916.03;;;-2.58;96.44
54270;BME280;40181;51.560;13.000;2023-12-04T08:33:40;100918.59;;;-2.46;96.11
54270;BME280;40181;51.560;13.000;2023-12-04T08:36:15;100920.81;;;-2.39;96.28
54270;BME280;40181;51.560;13.000;2023-12-04T08:38:45;100911.97;;;-2.42;95.88
54270;BME280;40181;51.560;13.000;2023-12-04T08:41:14;100903.94;;;-2.35;96.21
54270;BME280;40181;51.560;13.000;2023-12-04T08:43:43;100901.16;;;-2.38;95.83
54270;BME280;40181;51.560;13.000;2023-12-04T08:46:13;100909.41;;;-2.30;96.38
54270;BME280;40181;51.560;13.000;2023-12-04T08:48:42;100905.69;;;-2.22;95.76
54270;BME280;40181;51.560;13.000;2023-12-04T08:51:17;100903.09;;;-2.10;94.83
54270;BME280;40181;51.560;13.000;2023-12-04T08:53:47;100909.13;;;-2.10;95.36
54270;BME280;40181;51.560;13.000;2023-12-04T08:56:16;100916.28;;;-2.05;94.57
54270;BME280;40181;51.560;13.000;2023-12-04T08:58:45;100897.78;;;-2.00;94.26
54270;BME280;40181;51.560;13.000;2023-12-04T09:01:15;100903.81;;;-1.99;94.96
54270;BME280;40181;51.560;13.000;2023-12-04T09:03:45;100908.09;;;-2.00;94.21
54270;BME280;40181;51.560;13.000;2023-12-04T09:06:16;100905.56;;;-2.24;94.52
54270;BME280;40181;51.560;13.000;2023-12-04T09:08:45;100909.06;;;-2.23;94.78
54270;BME280;40181;51.560;13.000;2023-12-04T09:11:15;100900.91;;;-2.04;93.70
54270;BME280;40181;51.560;13.000;2023-12-04T09:13:44;100905.47;;;-1.88;93.99
54270;BME280;40181;51.560;13.000;2023-12-04T09:16:13;100909.09;;;-1.98;92.79
54270;BME280;40181;51.560;13.000;2023-12-04T09:18:42;100899.78;;;-1.96;93.61
54270;BME280;40181;51.560;13.000;2023-12-04T09:21:11;100899.59;;;-1.73;92.62
54270;BME280;40181;51.560;13.000;2023-12-04T09:23:43;100908.53;;;-1.68;92.47
54270;BME280;40181;51.560;13.000;2023-12-04T09:26:15;100897.88;;;-1.61;91.78
54270;BME280;40181;51.560;13.000;2023-12-04T09:28:44;100906.06;;;-1.67;91.20
54270;BME280;40181;51.560;13.000;2023-12-04T09:31:13;100901.22;;;-1.62;90.85
54270;BME280;40181;51.560;13.000;2023-12-04T09:33:43;100901.84;;;-1.78;89.96
54270;BME280;40181;51.560;13.000;2023-12-04T09:36:12;100896.59;;;-1.79;90.57
54270;BME280;40181;51.560;13.000;2023-12-04T09:38:44;100900.94;;;-1.53;89.86
54270;BME280;40181;51.560;13.000;2023-12-04T09:41:14;100896.72;;;-1.39;89.73
54270;BME280;40181;51.560;13.000;2023-12-04T09:43:44;100897.13;;;-1.72;90.74
54270;BME280;40181;51.560;13.000;2023-12-04T09:46:14;100893.28;;;-1.65;90.83
54270;BME280;40181;51.560;13.000;2023-12-04T09:48:44;100892.72;;;-1.47;90.45
54270;BME280;40181;51.560;13.000;2023-12-04T09:51:14;100884.81;;;-1.37;90.60
54270;BME280;40181;51.560;13.000;2023-12-04T09:53:47;100872.13;;;-1.47;90.71
54270;BME280;40181;51.560;13.000;2023-12-04T09:56:16;100876.16;;;-1.26;90.46
54270;BME280;40181;51.560;13.000;2023-12-04T09:58:50;100872.84;;;-1.23;90.11
54270;BME280;40181;51.560;13.000;2023-12-04T10:01:23;100871.00;;;-1.12;89.01
54270;BME280;40181;51.560;13.000;2023-12-04T10:03:53;100867.09;;;-1.32;89.77
54270;BME280;40181;51.560;13.000;2023-12-04T10:06:23;100870.09;;;-1.26;89.31
54270;BME280;40181;51.560;13.000;2023-12-04T10:08:58;100861.28;;;-1.03;89.32
54270;BME280;40181;51.560;13.000;2023-12-04T10:11:28;100852.75;;;-1.15;88.44
54270;BME280;40181;51.560;13.000;2023-12-04T10:13:58;100854.44;;;-1.29;88.64
54270;BME280;40181;51.560;13.000;2023-12-04T10:16:32;100848.78;;;-1.10;88.92
54270;BME280;40181;51.560;13.000;2023-12-04T10:19:15;100849.16;;;-1.17;88.60
54270;BME280;40181;51.560;13.000;2023-12-04T10:21:49;100838.47;;;-1.10;88.40
54270;BME280;40181;51.560;13.000;2023-12-04T10:24:32;100835.59;;;-1.01;88.66
54270;BME280;40181;51.560;13.000;2023-12-04T10:27:03;100836.47;;;-1.01;87.90
54270;BME280;40181;51.560;13.000;2023-12-04T10:29:42;100833.09;;;-1.00;88.14
54270;BME280;40181;51.560;13.000;2023-12-04T10:32:12;100827.34;;;-0.95;87.69
54270;BME280;40181;51.560;13.000;2023-12-04T10:34:42;100821.59;;;-1.05;87.25
54270;BME280;40181;51.560;13.000;2023-12-04T10:37:11;100804.34;;;-0.92;87.07
54270;BME280;40181;51.560;13.000;2023-12-04T10:39:48;100797.50;;;-0.92;87.49
54270;BME280;40181;51.560;13.000;2023-12-04T10:42:25;100797.00;;;-0.86;87.44
54270;BME280;40181;51.560;13.000;2023-12-04T10:44:56;100797.56;;;-0.90;86.83
54270;BME280;40181;51.560;13.000;2023-12-04T10:47:27;100791.34;;;-0.80;87.01
54270;BME280;40181;51.560;13.000;2023-12-04T10:49:57;100789.78;;;-0.63;86.93
54270;BME280;40181;51.560;13.000;2023-12-04T10:52:28;100781.03;;;-0.94;86.53
54270;BME280;40181;51.560;13.000;2023-12-04T10:55:00;100779.53;;;-0.90;86.19
54270;BME280;40181;51.560;13.000;2023-12-04T10:57:34;100789.03;;;-0.76;87.09
54270;BME280;40181;51.560;13.000;2023-12-04T11:00:08;100780.09;;;-0.67;85.89
54270;BME280;40181;51.560;13.000;2023-12-04T11:02:43;100776.47;;;-0.98;85.79
54270;BME280;40181;51.560;13.000;2023-12-04T11:05:14;100782.28;;;-0.74;85.37
54270;BME280;40181;51.560;13.000;2023-12-04T11:07:48;100782.38;;;-0.72;85.76
54270;BME280;40181;51.560;13.000;2023-12-04T11:10:23;100775.03;;;-0.66;85.50
54270;BME280;40181;51.560;13.000;2023-12-04T11:12:57;100775.91;;;-0.65;86.11
54270;BME280;40181;51.560;13.000;2023-12-04T11:15:30;100771.31;;;-0.56;85.69
54270;BME280;40181;51.560;13.000;2023-12-04T11:18:02;100782.91;;;-0.78;84.87
54270;BME280;40181;51.560;13.000;2023-12-04T11:20:36;100759.03;;;-0.60;86.49
54270;BME280;40181;51.560;13.000;2023-12-04T11:23:08;100751.66;;;-0.82;85.95
54270;BME280;40181;51.560;13.000;2023-12-04T11:25:40;100752.09;;;-0.61;86.48
54270;BME280;40181;51.560;13.000;2023-12-04T11:28:10;100743.56;;;-0.60;86.22
54270;BME280;40181;51.560;13.000;2023-12-04T11:30:41;100739.78;;;-0.65;85.88
54270;BME280;40181;51.560;13.000;2023-12-04T11:33:10;100743.41;;;-0.77;86.43
54270;BME280;40181;51.560;13.000;2023-12-04T11:35:40;100733.78;;;-0.79;85.14
54270;BME280;40181;51.560;13.000;2023-12-04T11:38:13;100727.81;;;-0.78;85.05
54270;BME280;40181;51.560;13.000;2023-12-04T11:40:46;100729.59;;;-0.77;84.72
54270;BME280;40181;51.560;13.000;2023-12-04T11:43:24;100717.75;;;-0.60;84.39
54270;BME280;40181;51.560;13.000;2023-12-04T11:46:07;100719.66;;;-0.71;84.87
54270;BME280;40181;51.560;13.000;2023-12-04T11:48:37;100724.13;;;-0.68;84.61
54270;BME280;40181;51.560;13.000;2023-12-04T11:51:07;100721.41;;;-0.57;84.27
54270;BME280;40181;51.560;13.000;2023-12-04T11:53:39;100704.63;;;-0.63;83.89
54270;BME280;40181;51.560;13.000;2023-12-04T11:56:12;100713.13;;;-0.66;83.25
54270;BME280;40181;51.560;13.000;2023-12-04T11:58:44;100709.63;;;-0.66;83.74
54270;BME280;40181;51.560;13.000;2023-12-04T12:01:20;100710.59;;;-0.64;84.36
54270;BME280;40181;51.560;13.000;2023-12-04T12:03:50;100708.00;;;-0.51;83.73
54270;BME280;40181;51.560;13.000;2023-12-04T12:06:20;100696.34;;;-0.44;83.82
54270;BME280;40181;51.560;13.000;2023-12-04T12:08:50;100702.81;;;-0.51;83.42
54270;BME280;40181;51.560;13.000;2023-12-04T12:11:22;100689.22;;;-0.48;84.12
54270;BME280;40181;51.560;13.000;2023-12-04T12:13:53;100683.59;;;-0.41;83.66
54270;BME280;40181;51.560;13.000;2023-12-04T12:16:22;100683.41;;;-0.59;83.83
54270;BME280;40181;51.560;13.000;2023-12-04T12:18:51;100677.03;;;-0.51;84.32
54270;BME280;40181;51.560;13.000;2023-12-04T12:21:20;100677.94;;;-0.35;83.46
54270;BME280;40181;51.560;13.000;2023-12-04T12:23:49;100679.16;;;-0.44;83.24
54270;BME280;40181;51.560;13.000;2023-12-04T12:26:18;100660.66;;;-0.36;83.41
54270;BME280;40181;51.560;13.000;2023-12-04T12:28:50;100656.66;;;-0.31;83.53
54270;BME280;40181;51.560;13.000;2023-12-04T12:31:20;100658.34;;;-0.32;83.10
54270;BME280;40181;51.560;13.000;2023-12-04T12:33:49;100658.53;;;-0.29;83.02
54270;BME280;40181;51.560;13.000;2023-12-04T12:36:18;100649.97;;;-0.43;83.50
54270;BME280;40181;51.560;13.000;2023-12-04T12:38:47;100651.81;;;-0.55;83.74
54270;BME280;40181;51.560;13.000;2023-12-04T12:41:17;100650.94;;;-0.40;83.17
54270;BME280;40181;51.560;13.000;2023-12-04T12:43:51;100645.53;;;-0.45;83.30
54270;BME280;40181;51.560;13.000;2023-12-04T12:46:22;100657.91;;;-0.24;83.50
54270;BME280;40181;51.560;13.000;2023-12-04T12:48:53;100655.06;;;-0.14;83.31
54270;BME280;40181;51.560;13.000;2023-12-04T12:51:23;100647.41;;;-0.12;82.24
54270;BME280;40181;51.560;13.000;2023-12-04T12:53:52;100639.75;;;-0.11;82.92
54270;BME280;40181;51.560;13.000;2023-12-04T12:56:21;100639.75;;;-0.11;82.43